sensor_id;sensor_type;location;lat;lon;timestamp;temperature;humidity
62339;DHT22;48368;53.406;6.214;2024-01-30T00:02:11;5.90;99.90
62339;DHT22;48368;53.406;6.214;2024-01-30T00:04:36;5.90;99.90
62339;DHT22;48368;53.406;6.214;2024-01-30T00:07:02;5.90;99.90
62339;DHT22;48368;53.406;6.214;2024-01-30T00:09:27;5.90;99.90
62339;DHT22;48368;53.406;6.214;2024-01-30T00:11:53;5.90;99.90
62339;DHT22;48368;53.406;6.214;2024-01-30T00:14:19;5.90;99.90
62339;DHT22;48368;53.406;6.214;2024-01-30T00:16:44;5.90;99.90
62339;DHT22;48368;53.406;6.214;2024-01-30T00:19:11;5.90;99.90
62339;DHT22;48368;53.406;6.214;2024-01-30T00:21:37;5.90;99.90
62339;DHT22;48368;53.406;6.214;2024-01-30T00:24:02;5.80;99.90
62339;DHT22;48368;53.406;6.214;2024-01-30T00:26:28;5.90;99.90
62339;DHT22;48368;53.406;6.214;2024-01-30T00:28:54;5.80;99.90
62339;DHT22;48368;53.406;6.214;2024-01-30T00:31:19;5.90;99.90
62339;DHT22;48368;53.406;6.214;2024-01-30T00:33:45;5.80;99.90
62339;DHT22;48368;53.406;6.214;2024-01-30T00:36:11;5.80;99.90
62339;DHT22;48368;53.406;6.214;2024-01-30T00:38:37;5.90;99.90
62339;DHT22;48368;53.406;6.214;2024-01-30T00:41:03;5.80;99.90
62339;DHT22;48368;53.406;6.214;2024-01-30T00:43:29;5.80;99.90
62339;DHT22;48368;53.406;6.214;2024-01-30T00:45:55;5.90;99.90
62339;DHT22;48368;53.406;6.214;2024-01-30T00:48:20;5.90;99.90
62339;DHT22;48368;53.406;6.214;2024-01-30T00:50:46;5.90;99.90
62339;DHT22;48368;53.406;6.214;2024-01-30T00:53:12;5.90;99.90
62339;DHT22;48368;53.406;6.214;2024-01-30T00:55:38;5.90;99.90
62339;DHT22;48368;53.406;6.214;2024-01-30T00:58:03;5.90;99.90
62339;DHT22;48368;53.406;6.214;2024-01-30T01:00:30;5.90;99.90
62339;DHT22;48368;53.406;6.214;2024-01-30T01:02:57;5.90;99.90
62339;DHT22;48368;53.406;6.214;2024-01-30T01:05:23;5.90;99.90
62339;DHT22;48368;53.406;6.214;2024-01-30T01:07:49;5.80;99.90
62339;DHT22;48368;53.406;6.214;2024-01-30T01:10:16;5.80;99.90
62339;DHT22;48368;53.406;6.214;2024-01-30T01:12:42;5.90;99.90
62339;DHT22;48368;53.406;6.214;2024-01-30T01:15:08;5.90;99.90
62339;DHT22;48368;53.406;6.214;2024-01-30T01:17:38;5.90;99.90
62339;DHT22;48368;53.406;6.214;2024-01-30T01:20:05;5.90;99.90
62339;DHT22;48368;53.406;6.214;2024-01-30T01:22:32;5.80;99.90
62339;DHT22;48368;53.406;6.214;2024-01-30T01:24:58;5.80;99.90
62339;DHT22;48368;53.406;6.214;2024-01-30T01:27:24;5.80;99.90
62339;DHT22;48368;53.406;6.214;2024-01-30T01:29:50;5.80;99.90
62339;DHT22;48368;53.406;6.214;2024-01-30T01:32:16;5.90;99.90
62339;DHT22;48368;53.406;6.214;2024-01-30T01:34:42;5.80;99.90
62339;DHT22;48368;53.406;6.214;2024-01-30T01:37:07;5.80;99.90
62339;DHT22;48368;53.406;6.214;2024-01-30T01:39:33;5.80;99.90
62339;DHT22;48368;53.406;6.214;2024-01-30T01:41:59;5.80;99.90
62339;DHT22;48368;53.406;6.214;2024-01-30T01:44:27;5.70;99.90
62339;DHT22;48368;53.406;6.214;2024-01-30T01:46:54;5.80;99.90
62339;DHT22;48368;53.406;6.214;2024-01-30T01:49:20;5.80;99.90
62339;DHT22;48368;53.406;6.214;2024-01-30T01:51:47;5.80;99.90
62339;DHT22;48368;53.406;6.214;2024-01-30T01:54:14;5.80;99.90
62339;DHT22;48368;53.406;6.214;2024-01-30T01:56:42;5.80;99.90
62339;DHT22;48368;53.406;6.214;2024-01-30T01:59:09;5.70;99.90
62339;DHT22;48368;53.406;6.214;2024-01-30T02:01:38;5.70;99.90
62339;DHT22;48368;53.406;6.214;2024-01-30T02:04:07;5.80;99.90
62339;DHT22;48368;53.406;6.214;2024-01-30T02:06:34;5.80;99.90
62339;DHT22;48368;53.406;6.214;2024-01-30T02:09:00;5.80;99.90
62339;DHT22;48368;53.406;6.214;2024-01-30T02:11:29;5.90;99.90
62339;DHT22;48368;53.406;6.214;2024-01-30T02:14:02;5.90;99.90
62339;DHT22;48368;53.406;6.214;2024-01-30T02:16:32;5.80;99.90
62339;DHT22;48368;53.406;6.214;2024-01-30T02:19:00;5.90;99.90
62339;DHT22;48368;53.406;6.214;2024-01-30T02:21:26;5.90;99.90
62339;DHT22;48368;53.406;6.214;2024-01-30T02:23:53;5.80;99.90
62339;DHT22;48368;53.406;6.214;2024-01-30T02:26:29;5.80;99.90
62339;DHT22;48368;53.406;6.214;2024-01-30T02:28:54;5.90;99.90
62339;DHT22;48368;53.406;6.214;2024-01-30T02:31:20;5.90;99.90
62339;DHT22;48368;53.406;6.214;2024-01-30T02:33:46;5.90;99.90
62339;DHT22;48368;53.406;6.214;2024-01-30T02:36:11;6.00;99.90
62339;DHT22;48368;53.406;6.214;2024-01-30T02:38:37;5.90;99.90
62339;DHT22;48368;53.406;6.214;2024-01-30T02:41:03;6.00;99.90
62339;DHT22;48368;53.406;6.214;2024-01-30T02:43:28;6.00;99.90
62339;DHT22;48368;53.406;6.214;2024-01-30T02:45:54;6.00;99.90
62339;DHT22;48368;53.406;6.214;2024-01-30T02:48:19;6.00;99.90
62339;DHT22;48368;53.406;6.214;2024-01-30T02:50:45;6.00;99.90
62339;DHT22;48368;53.406;6.214;2024-01-30T02:53:12;6.00;99.90
62339;DHT22;48368;53.406;6.214;2024-01-30T02:55:38;6.00;99.90
62339;DHT22;48368;53.406;6.214;2024-01-30T02:58:03;5.90;99.90
62339;DHT22;48368;53.406;6.214;2024-01-30T03:00:29;6.00;99.90
62339;DHT22;48368;53.406;6.214;2024-01-30T03:02:57;5.90;99.90
62339;DHT22;48368;53.406;6.214;2024-01-30T03:05:27;5.90;99.90
62339;DHT22;48368;53.406;6.214;2024-01-30T03:07:52;5.90;99.90
62339;DHT22;48368;53.406;6.214;2024-01-30T03:10:18;5.90;99.90
62339;DHT22;48368;53.406;6.214;2024-01-30T03:12:44;5.90;99.90
62339;DHT22;48368;53.406;6.214;2024-01-30T03:15:09;5.90;99.90
62339;DHT22;48368;53.406;6.214;2024-01-30T03:17:35;5.90;99.90
62339;DHT22;48368;53.406;6.214;2024-01-30T03:20:03;5.90;99.90
62339;DHT22;48368;53.406;6.214;2024-01-30T03:22:29;5.90;99.90
62339;DHT22;48368;53.406;6.214;2024-01-30T03:24:55;5.90;99.90
62339;DHT22;48368;53.406;6.214;2024-01-30T03:27:20;5.90;99.90
62339;DHT22;48368;53.406;6.214;2024-01-30T03:29:46;5.90;99.90
62339;DHT22;48368;53.406;6.214;2024-01-30T03:32:11;5.80;99.90
62339;DHT22;48368;53.406;6.214;2024-01-30T03:34:37;5.80;99.90
62339;DHT22;48368;53.406;6.214;2024-01-30T03:37:06;5.80;99.90
62339;DHT22;48368;53.406;6.214;2024-01-30T03:39:31;5.80;99.90
62339;DHT22;48368;53.406;6.214;2024-01-30T03:41:57;5.80;99.90
62339;DHT22;48368;53.406;6.214;2024-01-30T03:44:26;5.80;99.90
62339;DHT22;48368;53.406;6.214;2024-01-30T03:46:51;5.80;99.90
62339;DHT22;48368;53.406;6.214;2024-01-30T03:49:17;5.80;99.90
62339;DHT22;48368;53.406;6.214;2024-01-30T03:51:42;5.80;99.90
62339;DHT22;48368;53.406;6.214;2024-01-30T03:54:08;5.80;99.90
62339;DHT22;48368;53.406;6.214;2024-01-30T03:56:34;5.80;99.90
62339;DHT22;48368;53.406;6.214;2024-01-30T03:58:59;5.80;99.90
62339;DHT22;48368;53.406;6.214;2024-01-30T04:01:27;5.80;99.90
62339;DHT22;48368;53.406;6.214;2024-01-30T04:03:53;5.80;99.90
62339;DHT22;48368;53.406;6.214;2024-01-30T04:06:21;5.80;99.90
62339;DHT22;48368;53.406;6.214;2024-01-30T04:08:50;5.80;99.90
62339;DHT22;48368;53.406;6.214;2024-01-30T04:11:18;5.80;99.90
62339;DHT22;48368;53.406;6.214;2024-01-30T04:13:45;5.80;99.90
62339;DHT22;48368;53.406;6.214;2024-01-30T04:16:22;5.80;99.90
62339;DHT22;48368;53.406;6.214;2024-01-30T04:18:48;5.90;99.90
62339;DHT22;48368;53.406;6.214;2024-01-30T04:21:14;5.90;99.90
62339;DHT22;48368;53.406;6.214;2024-01-30T04:23:42;5.90;99.90
62339;DHT22;48368;53.406;6.214;2024-01-30T04:26:08;6.00;99.90
62339;DHT22;48368;53.406;6.214;2024-01-30T04:28:33;6.00;99.90
62339;DHT22;48368;53.406;6.214;2024-01-30T04:30:59;6.00;99.90
62339;DHT22;48368;53.406;6.214;2024-01-30T04:33:24;6.00;99.90
62339;DHT22;48368;53.406;6.214;2024-01-30T04:35:50;6.00;99.90
62339;DHT22;48368;53.406;6.214;2024-01-30T04:38:17;6.00;99.90
62339;DHT22;48368;53.406;6.214;2024-01-30T04:40:43;6.10;99.90
62339;DHT22;48368;53.406;6.214;2024-01-30T04:43:12;6.10;99.90
62339;DHT22;48368;53.406;6.214;2024-01-30T04:45:37;6.10;99.90
62339;DHT22;48368;53.406;6.214;2024-01-30T04:48:03;6.10;99.90
62339;DHT22;48368;53.406;6.214;2024-01-30T04:50:29;6.10;99.90
62339;DHT22;48368;53.406;6.214;2024-01-30T04:52:55;6.20;99.90
62339;DHT22;48368;53.406;6.214;2024-01-30T04:55:20;6.20;99.90
62339;DHT22;48368;53.406;6.214;2024-01-30T04:57:46;6.20;99.90
62339;DHT22;48368;53.406;6.214;2024-01-30T05:00:12;6.20;99.90
62339;DHT22;48368;53.406;6.214;2024-01-30T05:02:48;6.30;99.90
62339;DHT22;48368;53.406;6.214;2024-01-30T05:05:14;6.30;99.90
62339;DHT22;48368;53.406;6.214;2024-01-30T05:07:43;6.30;99.90
62339;DHT22;48368;53.406;6.214;2024-01-30T05:10:09;6.30;99.90
62339;DHT22;48368;53.406;6.214;2024-01-30T05:12:34;6.30;99.90
62339;DHT22;48368;53.406;6.214;2024-01-30T05:15:00;6.30;99.90
62339;DHT22;48368;53.406;6.214;2024-01-30T05:17:28;6.30;99.90
62339;DHT22;48368;53.406;6.214;2024-01-30T05:19:53;6.30;99.90
62339;DHT22;48368;53.406;6.214;2024-01-30T05:22:19;6.30;99.90
62339;DHT22;48368;53.406;6.214;2024-01-30T05:24:44;6.30;99.90
62339;DHT22;48368;53.406;6.214;2024-01-30T05:27:10;6.30;99.90
62339;DHT22;48368;53.406;6.214;2024-01-30T05:29:39;6.30;99.90
62339;DHT22;48368;53.406;6.214;2024-01-30T05:32:04;6.40;99.90
62339;DHT22;48368;53.406;6.214;2024-01-30T05:34:35;6.40;99.90
62339;DHT22;48368;53.406;6.214;2024-01-30T05:37:01;6.40;99.90
62339;DHT22;48368;53.406;6.214;2024-01-30T05:39:27;6.40;99.90
62339;DHT22;48368;53.406;6.214;2024-01-30T05:41:58;6.40;99.90
62339;DHT22;48368;53.406;6.214;2024-01-30T05:44:24;6.40;99.90
62339;DHT22;48368;53.406;6.214;2024-01-30T05:46:49;6.40;99.90
62339;DHT22;48368;53.406;6.214;2024-01-30T05:49:15;6.40;99.90
62339;DHT22;48368;53.406;6.214;2024-01-30T05:51:40;6.40;99.90
62339;DHT22;48368;53.406;6.214;2024-01-30T05:54:09;6.40;99.90
62339;DHT22;48368;53.406;6.214;2024-01-30T05:56:34;6.50;99.90
62339;DHT22;48368;53.406;6.214;2024-01-30T05:59:00;6.50;99.90
62339;DHT22;48368;53.406;6.214;2024-01-30T06:01:26;6.50;99.90
62339;DHT22;48368;53.406;6.214;2024-01-30T06:03:51;6.50;99.90
62339;DHT22;48368;53.406;6.214;2024-01-30T06:06:17;6.50;99.90
62339;DHT22;48368;53.406;6.214;2024-01-30T06:08:42;6.50;99.90
62339;DHT22;48368;53.406;6.214;2024-01-30T06:11:10;6.50;99.90
62339;DHT22;48368;53.406;6.214;2024-01-30T06:13:36;6.50;99.90
62339;DHT22;48368;53.406;6.214;2024-01-30T06:16:02;6.50;99.90
62339;DHT22;48368;53.406;6.214;2024-01-30T06:18:28;6.60;99.90
62339;DHT22;48368;53.406;6.214;2024-01-30T06:20:55;6.60;99.90
62339;DHT22;48368;53.406;6.214;2024-01-30T06:23:21;6.60;99.90
62339;DHT22;48368;53.406;6.214;2024-01-30T06:25:47;6.60;99.90
62339;DHT22;48368;53.406;6.214;2024-01-30T06:28:12;6.60;99.90
62339;DHT22;48368;53.406;6.214;2024-01-30T06:30:38;6.60;99.90
62339;DHT22;48368;53.406;6.214;2024-01-30T06:33:04;6.60;99.90
62339;DHT22;48368;53.406;6.214;2024-01-30T06:35:29;6.60;99.90
62339;DHT22;48368;53.406;6.214;2024-01-30T06:37:55;6.60;99.90
62339;DHT22;48368;53.406;6.214;2024-01-30T06:40:21;6.60;99.90
62339;DHT22;48368;53.406;6.214;2024-01-30T06:42:46;6.70;99.90
62339;DHT22;48368;53.406;6.214;2024-01-30T06:45:12;6.70;99.90
62339;DHT22;48368;53.406;6.214;2024-01-30T06:47:38;6.70;99.90
62339;DHT22;48368;53.406;6.214;2024-01-30T06:50:04;6.70;99.90
62339;DHT22;48368;53.406;6.214;2024-01-30T06:52:29;6.70;99.90
62339;DHT22;48368;53.406;6.214;2024-01-30T06:54:55;6.70;99.90
62339;DHT22;48368;53.406;6.214;2024-01-30T06:57:20;6.70;99.90
62339;DHT22;48368;53.406;6.214;2024-01-30T06:59:46;6.80;99.90
62339;DHT22;48368;53.406;6.214;2024-01-30T07:02:14;6.80;99.90
62339;DHT22;48368;53.406;6.214;2024-01-30T07:04:39;6.70;99.90
62339;DHT22;48368;53.406;6.214;2024-01-30T07:07:06;6.80;99.90
62339;DHT22;48368;53.406;6.214;2024-01-30T07:09:40;6.70;99.90
62339;DHT22;48368;53.406;6.214;2024-01-30T07:12:06;6.70;99.90
62339;DHT22;48368;53.406;6.214;2024-01-30T07:14:32;6.80;99.90
62339;DHT22;48368;53.406;6.214;2024-01-30T07:16:58;6.80;99.90
62339;DHT22;48368;53.406;6.214;2024-01-30T07:19:29;6.80;99.90
62339;DHT22;48368;53.406;6.214;2024-01-30T07:21:55;6.80;99.90
62339;DHT22;48368;53.406;6.214;2024-01-30T07:24:20;6.90;99.90
62339;DHT22;48368;53.406;6.214;2024-01-30T07:26:49;6.90;99.90
62339;DHT22;48368;53.406;6.214;2024-01-30T07:29:15;6.90;99.90
62339;DHT22;48368;53.406;6.214;2024-01-30T07:31:40;6.90;99.90
62339;DHT22;48368;53.406;6.214;2024-01-30T07:34:06;7.00;99.90
62339;DHT22;48368;53.406;6.214;2024-01-30T07:36:31;7.00;99.90
62339;DHT22;48368;53.406;6.214;2024-01-30T07:38:57;7.00;99.90
62339;DHT22;48368;53.406;6.214;2024-01-30T07:41:23;7.00;99.90
62339;DHT22;48368;53.406;6.214;2024-01-30T07:43:50;7.10;99.90
62339;DHT22;48368;53.406;6.214;2024-01-30T07:46:16;7.20;99.90
62339;DHT22;48368;53.406;6.214;2024-01-30T07:48:42;7.20;99.90
62339;DHT22;48368;53.406;6.214;2024-01-30T07:51:07;7.20;99.90
62339;DHT22;48368;53.406;6.214;2024-01-30T07:53:33;7.40;99.90
62339;DHT22;48368;53.406;6.214;2024-01-30T07:55:59;7.40;99.90
62339;DHT22;48368;53.406;6.214;2024-01-30T07:58:24;7.50;99.90
62339;DHT22;48368;53.406;6.214;2024-01-30T08:00:52;7.50;99.90
62339;DHT22;48368;53.406;6.214;2024-01-30T08:03:19;7.60;99.90
62339;DHT22;48368;53.406;6.214;2024-01-30T08:05:47;7.60;99.90
62339;DHT22;48368;53.406;6.214;2024-01-30T08:08:13;7.60;99.90
62339;DHT22;48368;53.406;6.214;2024-01-30T08:10:39;7.60;99.90
62339;DHT22;48368;53.406;6.214;2024-01-30T08:13:04;7.60;99.90
62339;DHT22;48368;53.406;6.214;2024-01-30T08:15:30;7.70;99.90
62339;DHT22;48368;53.406;6.214;2024-01-30T08:17:55;7.70;99.90
62339;DHT22;48368;53.406;6.214;2024-01-30T08:20:24;7.80;99.90
62339;DHT22;48368;53.406;6.214;2024-01-30T08:22:50;7.70;99.90
62339;DHT22;48368;53.406;6.214;2024-01-30T08:25:15;7.80;99.90
62339;DHT22;48368;53.406;6.214;2024-01-30T08:27:41;7.90;99.90
62339;DHT22;48368;53.406;6.214;2024-01-30T08:30:07;7.90;99.90
62339;DHT22;48368;53.406;6.214;2024-01-30T08:32:33;7.90;99.90
62339;DHT22;48368;53.406;6.214;2024-01-30T08:34:59;7.90;99.90
62339;DHT22;48368;53.406;6.214;2024-01-30T08:37:25;8.00;99.90
62339;DHT22;48368;53.406;6.214;2024-01-30T08:39:51;8.10;99.90
62339;DHT22;48368;53.406;6.214;2024-01-30T08:42:16;8.00;99.90
62339;DHT22;48368;53.406;6.214;2024-01-30T08:48:14;8.10;99.90
62339;DHT22;48368;53.406;6.214;2024-01-30T08:50:40;8.10;99.90
62339;DHT22;48368;53.406;6.214;2024-01-30T08:53:09;8.10;99.90
62339;DHT22;48368;53.406;6.214;2024-01-30T08:55:34;8.10;99.90
62339;DHT22;48368;53.406;6.214;2024-01-30T08:58:00;8.10;99.90
62339;DHT22;48368;53.406;6.214;2024-01-30T09:00:25;8.20;99.90
62339;DHT22;48368;53.406;6.214;2024-01-30T09:02:51;8.10;99.90
62339;DHT22;48368;53.406;6.214;2024-01-30T09:05:17;8.20;99.90
62339;DHT22;48368;53.406;6.214;2024-01-30T09:07:42;8.20;99.90
62339;DHT22;48368;53.406;6.214;2024-01-30T09:10:08;8.30;99.90
62339;DHT22;48368;53.406;6.214;2024-01-30T09:12:34;8.30;99.90
62339;DHT22;48368;53.406;6.214;2024-01-30T09:14:59;8.40;99.90
62339;DHT22;48368;53.406;6.214;2024-01-30T09:17:25;8.40;99.90
62339;DHT22;48368;53.406;6.214;2024-01-30T09:19:51;8.40;99.90
62339;DHT22;48368;53.406;6.214;2024-01-30T09:22:16;8.40;99.90
62339;DHT22;48368;53.406;6.214;2024-01-30T09:24:42;8.40;99.90
62339;DHT22;48368;53.406;6.214;2024-01-30T09:27:07;8.50;99.90
62339;DHT22;48368;53.406;6.214;2024-01-30T09:29:33;8.50;99.90
62339;DHT22;48368;53.406;6.214;2024-01-30T09:32:01;8.50;99.90
62339;DHT22;48368;53.406;6.214;2024-01-30T09:34:27;8.50;99.90
62339;DHT22;48368;53.406;6.214;2024-01-30T09:36:53;8.50;99.90
62339;DHT22;48368;53.406;6.214;2024-01-30T09:39:21;8.50;99.90
62339;DHT22;48368;53.406;6.214;2024-01-30T09:41:49;8.60;99.90
62339;DHT22;48368;53.406;6.214;2024-01-30T09:44:17;8.60;99.90
62339;DHT22;48368;53.406;6.214;2024-01-30T09:46:48;8.70;99.90
62339;DHT22;48368;53.406;6.214;2024-01-30T09:49:17;8.60;99.90
62339;DHT22;48368;53.406;6.214;2024-01-30T09:51:44;8.60;99.90
62339;DHT22;48368;53.406;6.214;2024-01-30T09:54:13;8.70;99.90
62339;DHT22;48368;53.406;6.214;2024-01-30T09:56:39;8.70;99.90
62339;DHT22;48368;53.406;6.214;2024-01-30T09:59:05;8.80;99.90
62339;DHT22;48368;53.406;6.214;2024-01-30T10:01:31;8.80;99.90
62339;DHT22;48368;53.406;6.214;2024-01-30T10:03:59;8.80;99.90
62339;DHT22;48368;53.406;6.214;2024-01-30T10:06:24;8.80;99.90
62339;DHT22;48368;53.406;6.214;2024-01-30T10:08:50;8.90;99.90
62339;DHT22;48368;53.406;6.214;2024-01-30T10:11:16;8.90;99.90
62339;DHT22;48368;53.406;6.214;2024-01-30T10:13:41;8.80;99.90
62339;DHT22;48368;53.406;6.214;2024-01-30T10:16:07;8.80;99.90
62339;DHT22;48368;53.406;6.214;2024-01-30T10:18:33;8.80;99.90
62339;DHT22;48368;53.406;6.214;2024-01-30T10:20:59;8.80;99.90
62339;DHT22;48368;53.406;6.214;2024-01-30T10:23:24;8.80;99.90
62339;DHT22;48368;53.406;6.214;2024-01-30T10:25:51;8.80;99.90
62339;DHT22;48368;53.406;6.214;2024-01-30T10:28:17;8.80;99.90
62339;DHT22;48368;53.406;6.214;2024-01-30T10:30:43;8.90;99.90
62339;DHT22;48368;53.406;6.214;2024-01-30T10:33:09;9.00;99.90
62339;DHT22;48368;53.406;6.214;2024-01-30T10:35:34;9.00;99.90
62339;DHT22;48368;53.406;6.214;2024-01-30T10:38:00;9.00;99.90
62339;DHT22;48368;53.406;6.214;2024-01-30T10:40:29;9.00;99.90
62339;DHT22;48368;53.406;6.214;2024-01-30T10:42:55;9.10;99.90
62339;DHT22;48368;53.406;6.214;2024-01-30T10:45:22;9.00;99.90
62339;DHT22;48368;53.406;6.214;2024-01-30T10:47:55;9.10;99.90
62339;DHT22;48368;53.406;6.214;2024-01-30T10:50:29;9.10;99.90
62339;DHT22;48368;53.406;6.214;2024-01-30T10:52:57;9.10;99.90
62339;DHT22;48368;53.406;6.214;2024-01-30T10:55:25;9.10;99.90
62339;DHT22;48368;53.406;6.214;2024-01-30T10:57:53;9.10;99.90
62339;DHT22;48368;53.406;6.214;2024-01-30T11:00:19;9.10;99.90
62339;DHT22;48368;53.406;6.214;2024-01-30T11:02:49;9.10;99.90
62339;DHT22;48368;53.406;6.214;2024-01-30T11:05:14;9.10;99.90
62339;DHT22;48368;53.406;6.214;2024-01-30T11:07:48;9.10;99.90
62339;DHT22;48368;53.406;6.214;2024-01-30T11:10:14;9.10;99.90
62339;DHT22;48368;53.406;6.214;2024-01-30T11:12:40;9.10;99.90
62339;DHT22;48368;53.406;6.214;2024-01-30T11:15:09;9.00;99.90
62339;DHT22;48368;53.406;6.214;2024-01-30T11:20:21;9.00;99.90
62339;DHT22;48368;53.406;6.214;2024-01-30T11:22:49;9.00;99.90
62339;DHT22;48368;53.406;6.214;2024-01-30T11:25:17;9.00;99.90
62339;DHT22;48368;53.406;6.214;2024-01-30T11:27:44;8.90;99.90
62339;DHT22;48368;53.406;6.214;2024-01-30T11:30:10;8.90;99.90
62339;DHT22;48368;53.406;6.214;2024-01-30T11:32:36;8.90;99.90
62339;DHT22;48368;53.406;6.214;2024-01-30T11:35:06;8.90;99.90
62339;DHT22;48368;53.406;6.214;2024-01-30T11:37:32;8.90;99.90
62339;DHT22;48368;53.406;6.214;2024-01-30T11:40:02;8.90;99.90
62339;DHT22;48368;53.406;6.214;2024-01-30T11:42:30;8.90;99.90
62339;DHT22;48368;53.406;6.214;2024-01-30T11:44:55;9.00;99.90
62339;DHT22;48368;53.406;6.214;2024-01-30T11:47:22;9.00;99.90
62339;DHT22;48368;53.406;6.214;2024-01-30T11:49:48;8.90;99.90
62339;DHT22;48368;53.406;6.214;2024-01-30T11:52:14;9.00;99.90
62339;DHT22;48368;53.406;6.214;2024-01-30T11:54:40;9.00;99.90
62339;DHT22;48368;53.406;6.214;2024-01-30T11:57:05;9.00;99.90
62339;DHT22;48368;53.406;6.214;2024-01-30T11:59:31;9.00;99.90
62339;DHT22;48368;53.406;6.214;2024-01-30T12:01:59;9.00;99.90
62339;DHT22;48368;53.406;6.214;2024-01-30T12:04:28;9.00;99.90
62339;DHT22;48368;53.406;6.214;2024-01-30T12:06:54;9.00;99.90
62339;DHT22;48368;53.406;6.214;2024-01-30T12:09:20;9.00;99.90
62339;DHT22;48368;53.406;6.214;2024-01-30T12:11:48;8.90;99.90
62339;DHT22;48368;53.406;6.214;2024-01-30T12:14:15;8.90;99.90
62339;DHT22;48368;53.406;6.214;2024-01-30T12:16:41;8.80;99.90
62339;DHT22;48368;53.406;6.214;2024-01-30T12:19:07;8.80;99.90
62339;DHT22;48368;53.406;6.214;2024-01-30T12:21:34;8.80;99.90
62339;DHT22;48368;53.406;6.214;2024-01-30T12:24:00;8.80;99.90
62339;DHT22;48368;53.406;6.214;2024-01-30T12:26:26;8.80;99.90
62339;DHT22;48368;53.406;6.214;2024-01-30T12:28:55;8.70;99.90
62339;DHT22;48368;53.406;6.214;2024-01-30T12:31:32;8.80;99.90
62339;DHT22;48368;53.406;6.214;2024-01-30T12:33:59;8.80;99.90
62339;DHT22;48368;53.406;6.214;2024-01-30T12:36:25;8.80;99.90
62339;DHT22;48368;53.406;6.214;2024-01-30T12:38:51;8.90;99.90
62339;DHT22;48368;53.406;6.214;2024-01-30T12:41:17;8.90;99.90
62339;DHT22;48368;53.406;6.214;2024-01-30T12:43:43;8.90;99.90
62339;DHT22;48368;53.406;6.214;2024-01-30T12:46:08;8.90;99.90
62339;DHT22;48368;53.406;6.214;2024-01-30T12:48:37;8.80;99.90
62339;DHT22;48368;53.406;6.214;2024-01-30T12:51:03;8.80;99.90
62339;DHT22;48368;53.406;6.214;2024-01-30T12:53:29;8.80;99.90
62339;DHT22;48368;53.406;6.214;2024-01-30T12:55:55;8.80;99.90
62339;DHT22;48368;53.406;6.214;2024-01-30T12:58:21;8.80;99.90
62339;DHT22;48368;53.406;6.214;2024-01-30T13:00:46;8.80;99.90
62339;DHT22;48368;53.406;6.214;2024-01-30T13:03:13;8.80;99.90
62339;DHT22;48368;53.406;6.214;2024-01-30T13:05:38;8.90;99.90
62339;DHT22;48368;53.406;6.214;2024-01-30T13:08:04;8.80;99.90
62339;DHT22;48368;53.406;6.214;2024-01-30T13:10:33;8.80;99.90
62339;DHT22;48368;53.406;6.214;2024-01-30T13:12:58;8.70;99.90
62339;DHT22;48368;53.406;6.214;2024-01-30T13:15:24;8.80;99.90
62339;DHT22;48368;53.406;6.214;2024-01-30T13:17:52;8.70;99.90
62339;DHT22;48368;53.406;6.214;2024-01-30T13:20:19;8.70;99.90
62339;DHT22;48368;53.406;6.214;2024-01-30T13:22:47;8.70;99.90
62339;DHT22;48368;53.406;6.214;2024-01-30T13:25:15;8.70;99.90
62339;DHT22;48368;53.406;6.214;2024-01-30T13:27:41;8.70;99.90
62339;DHT22;48368;53.406;6.214;2024-01-30T13:30:07;8.70;99.90
62339;DHT22;48368;53.406;6.214;2024-01-30T13:32:34;8.70;99.90
62339;DHT22;48368;53.406;6.214;2024-01-30T13:35:00;8.70;99.90
62339;DHT22;48368;53.406;6.214;2024-01-30T13:37:25;8.70;99.90
62339;DHT22;48368;53.406;6.214;2024-01-30T13:39:51;8.70;99.90
62339;DHT22;48368;53.406;6.214;2024-01-30T13:42:17;8.70;99.90
62339;DHT22;48368;53.406;6.214;2024-01-30T13:44:42;8.70;99.90
62339;DHT22;48368;53.406;6.214;2024-01-30T13:47:11;8.60;99.90
62339;DHT22;48368;53.406;6.214;2024-01-30T13:49:41;8.70;99.90
62339;DHT22;48368;53.406;6.214;2024-01-30T13:52:06;8.70;99.90
62339;DHT22;48368;53.406;6.214;2024-01-30T13:54:32;8.70;99.90
62339;DHT22;48368;53.406;6.214;2024-01-30T13:56:58;8.60;99.90
62339;DHT22;48368;53.406;6.214;2024-01-30T13:59:24;8.60;99.90
62339;DHT22;48368;53.406;6.214;2024-01-30T14:01:51;8.60;99.90
62339;DHT22;48368;53.406;6.214;2024-01-30T14:04:17;8.60;99.90
62339;DHT22;48368;53.406;6.214;2024-01-30T14:06:43;8.60;99.90
62339;DHT22;48368;53.406;6.214;2024-01-30T14:09:08;8.60;99.90
62339;DHT22;48368;53.406;6.214;2024-01-30T14:11:35;8.50;99.90
62339;DHT22;48368;53.406;6.214;2024-01-30T14:14:01;8.50;99.90
62339;DHT22;48368;53.406;6.214;2024-01-30T14:16:26;8.50;99.90
62339;DHT22;48368;53.406;6.214;2024-01-30T14:18:54;8.40;99.90
62339;DHT22;48368;53.406;6.214;2024-01-30T14:21:19;8.40;99.90
62339;DHT22;48368;53.406;6.214;2024-01-30T14:23:45;8.40;99.90
62339;DHT22;48368;53.406;6.214;2024-01-30T14:26:12;8.30;99.90
62339;DHT22;48368;53.406;6.214;2024-01-30T14:28:38;8.40;99.90
62339;DHT22;48368;53.406;6.214;2024-01-30T14:31:03;8.30;99.90
62339;DHT22;48368;53.406;6.214;2024-01-30T14:33:32;8.30;99.90
62339;DHT22;48368;53.406;6.214;2024-01-30T14:36:04;8.30;99.90
62339;DHT22;48368;53.406;6.214;2024-01-30T14:38:30;8.40;99.90
62339;DHT22;48368;53.406;6.214;2024-01-30T14:40:56;8.30;99.90
62339;DHT22;48368;53.406;6.214;2024-01-30T14:43:21;8.30;99.90
62339;DHT22;48368;53.406;6.214;2024-01-30T14:45:47;8.30;99.90
62339;DHT22;48368;53.406;6.214;2024-01-30T14:48:15;8.30;99.90
62339;DHT22;48368;53.406;6.214;2024-01-30T14:50:41;8.30;99.90
62339;DHT22;48368;53.406;6.214;2024-01-30T14:53:06;8.30;99.90
62339;DHT22;48368;53.406;6.214;2024-01-30T14:55:32;8.30;99.90
62339;DHT22;48368;53.406;6.214;2024-01-30T14:57:58;8.30;99.90
62339;DHT22;48368;53.406;6.214;2024-01-30T15:00:25;8.30;99.90
62339;DHT22;48368;53.406;6.214;2024-01-30T15:02:50;8.30;99.90
62339;DHT22;48368;53.406;6.214;2024-01-30T15:05:16;8.30;99.90
62339;DHT22;48368;53.406;6.214;2024-01-30T15:07:42;8.30;99.90
62339;DHT22;48368;53.406;6.214;2024-01-30T15:10:08;8.40;99.90
62339;DHT22;48368;53.406;6.214;2024-01-30T15:12:36;8.40;99.90
62339;DHT22;48368;53.406;6.214;2024-01-30T15:15:02;8.30;99.90
62339;DHT22;48368;53.406;6.214;2024-01-30T15:17:34;8.30;99.90
62339;DHT22;48368;53.406;6.214;2024-01-30T15:19:59;8.30;99.90
62339;DHT22;48368;53.406;6.214;2024-01-30T15:22:26;8.30;99.90
62339;DHT22;48368;53.406;6.214;2024-01-30T15:24:51;8.30;99.90
62339;DHT22;48368;53.406;6.214;2024-01-30T15:27:17;8.30;99.90
62339;DHT22;48368;53.406;6.214;2024-01-30T15:29:45;8.30;99.90
62339;DHT22;48368;53.406;6.214;2024-01-30T15:32:10;8.30;99.90
62339;DHT22;48368;53.406;6.214;2024-01-30T15:34:36;8.20;99.90
62339;DHT22;48368;53.406;6.214;2024-01-30T15:37:02;8.20;99.90
62339;DHT22;48368;53.406;6.214;2024-01-30T15:39:28;8.20;99.90
62339;DHT22;48368;53.406;6.214;2024-01-30T15:41:54;8.10;99.90
62339;DHT22;48368;53.406;6.214;2024-01-30T15:44:20;8.10;99.90
62339;DHT22;48368;53.406;6.214;2024-01-30T15:46:46;8.00;99.90